sensor_id;sensor_type;location;lat;lon;timestamp;temperature;humidity
15103;DHT22;7652;53.584;9.998;2022-07-24T00:00:35;15.10;99.90
15103;DHT22;7652;53.584;9.998;2022-07-24T00:03:38;15.00;99.90
15103;DHT22;7652;53.584;9.998;2022-07-24T00:06:41;15.10;99.90
15103;DHT22;7652;53.584;9.998;2022-07-24T00:09:44;15.00;99.90
15103;DHT22;7652;53.584;9.998;2022-07-24T00:12:47;15.00;99.90
15103;DHT22;7652;53.584;9.998;2022-07-24T00:15:51;14.80;99.90
15103;DHT22;7652;53.584;9.998;2022-07-24T00:18:55;14.70;99.90
15103;DHT22;7652;53.584;9.998;2022-07-24T00:21:58;14.80;99.90
15103;DHT22;7652;53.584;9.998;2022-07-24T00:25:02;14.80;99.90
15103;DHT22;7652;53.584;9.998;2022-07-24T00:28:05;14.90;99.90
15103;DHT22;7652;53.584;9.998;2022-07-24T00:31:11;14.90;99.90
15103;DHT22;7652;53.584;9.998;2022-07-24T00:34:14;15.00;99.90
15103;DHT22;7652;53.584;9.998;2022-07-24T00:37:17;14.90;99.90
15103;DHT22;7652;53.584;9.998;2022-07-24T00:40:21;14.80;99.90
15103;DHT22;7652;53.584;9.998;2022-07-24T00:43:24;14.70;99.90
15103;DHT22;7652;53.584;9.998;2022-07-24T00:46:28;14.80;99.90
15103;DHT22;7652;53.584;9.998;2022-07-24T00:49:32;14.80;99.90
15103;DHT22;7652;53.584;9.998;2022-07-24T00:52:35;14.80;99.90
15103;DHT22;7652;53.584;9.998;2022-07-24T00:55:38;14.80;99.90
15103;DHT22;7652;53.584;9.998;2022-07-24T00:58:42;14.70;99.90
15103;DHT22;7652;53.584;9.998;2022-07-24T01:01:47;14.60;99.90
15103;DHT22;7652;53.584;9.998;2022-07-24T01:04:50;14.70;99.90
15103;DHT22;7652;53.584;9.998;2022-07-24T01:07:53;14.70;99.90
15103;DHT22;7652;53.584;9.998;2022-07-24T01:10:56;14.70;99.90
15103;DHT22;7652;53.584;9.998;2022-07-24T01:14:00;14.60;99.90
15103;DHT22;7652;53.584;9.998;2022-07-24T01:17:05;14.60;99.90
15103;DHT22;7652;53.584;9.998;2022-07-24T01:20:09;14.60;99.90
15103;DHT22;7652;53.584;9.998;2022-07-24T01:23:14;14.60;99.90
15103;DHT22;7652;53.584;9.998;2022-07-24T01:26:17;14.50;99.90
15103;DHT22;7652;53.584;9.998;2022-07-24T01:29:20;14.40;99.90
15103;DHT22;7652;53.584;9.998;2022-07-24T01:32:23;14.40;99.90
15103;DHT22;7652;53.584;9.998;2022-07-24T01:35:26;14.40;99.90
15103;DHT22;7652;53.584;9.998;2022-07-24T01:38:31;14.40;99.90
15103;DHT22;7652;53.584;9.998;2022-07-24T01:41:34;14.50;99.90
15103;DHT22;7652;53.584;9.998;2022-07-24T01:44:37;14.60;99.90
15103;DHT22;7652;53.584;9.998;2022-07-24T01:47:40;14.60;99.90
15103;DHT22;7652;53.584;9.998;2022-07-24T01:50:43;14.60;99.90
15103;DHT22;7652;53.584;9.998;2022-07-24T01:53:47;14.50;99.90
15103;DHT22;7652;53.584;9.998;2022-07-24T01:56:50;14.60;99.90
15103;DHT22;7652;53.584;9.998;2022-07-24T01:59:53;14.50;99.90
15103;DHT22;7652;53.584;9.998;2022-07-24T02:02:59;14.60;99.90
15103;DHT22;7652;53.584;9.998;2022-07-24T02:06:02;14.60;99.90
15103;DHT22;7652;53.584;9.998;2022-07-24T02:09:07;14.60;99.90
15103;DHT22;7652;53.584;9.998;2022-07-24T02:12:10;14.60;99.90
15103;DHT22;7652;53.584;9.998;2022-07-24T02:15:14;14.50;99.90
15103;DHT22;7652;53.584;9.998;2022-07-24T02:18:17;14.30;99.90
15103;DHT22;7652;53.584;9.998;2022-07-24T02:21:20;14.20;99.90
15103;DHT22;7652;53.584;9.998;2022-07-24T02:24:24;14.30;99.90
15103;DHT22;7652;53.584;9.998;2022-07-24T02:27:27;14.30;99.90
15103;DHT22;7652;53.584;9.998;2022-07-24T02:30:30;14.30;99.90
15103;DHT22;7652;53.584;9.998;2022-07-24T02:33:33;14.30;99.90
15103;DHT22;7652;53.584;9.998;2022-07-24T02:36:36;14.40;99.90
15103;DHT22;7652;53.584;9.998;2022-07-24T02:39:40;14.30;99.90
15103;DHT22;7652;53.584;9.998;2022-07-24T02:42:43;14.30;99.90
15103;DHT22;7652;53.584;9.998;2022-07-24T02:45:46;14.30;99.90
15103;DHT22;7652;53.584;9.998;2022-07-24T02:48:53;14.30;99.90
15103;DHT22;7652;53.584;9.998;2022-07-24T02:51:57;14.20;99.90
15103;DHT22;7652;53.584;9.998;2022-07-24T02:55:01;14.20;99.90
15103;DHT22;7652;53.584;9.998;2022-07-24T02:58:04;14.20;99.90
15103;DHT22;7652;53.584;9.998;2022-07-24T03:01:07;14.20;99.90
15103;DHT22;7652;53.584;9.998;2022-07-24T03:04:10;14.10;99.90
15103;DHT22;7652;53.584;9.998;2022-07-24T03:07:13;14.20;99.90
15103;DHT22;7652;53.584;9.998;2022-07-24T03:10:18;14.20;99.90
15103;DHT22;7652;53.584;9.998;2022-07-24T03:13:21;14.10;99.90
15103;DHT22;7652;53.584;9.998;2022-07-24T03:16:24;14.00;99.90
15103;DHT22;7652;53.584;9.998;2022-07-24T03:19:27;13.90;99.90
15103;DHT22;7652;53.584;9.998;2022-07-24T03:22:30;14.00;99.90
15103;DHT22;7652;53.584;9.998;2022-07-24T03:25:35;14.00;99.90
15103;DHT22;7652;53.584;9.998;2022-07-24T03:28:38;14.00;99.90
15103;DHT22;7652;53.584;9.998;2022-07-24T03:31:41;14.00;99.90
15103;DHT22;7652;53.584;9.998;2022-07-24T03:34:44;14.00;99.90
15103;DHT22;7652;53.584;9.998;2022-07-24T03:37:47;14.10;99.90
15103;DHT22;7652;53.584;9.998;2022-07-24T03:40:52;14.20;99.90
15103;DHT22;7652;53.584;9.998;2022-07-24T03:43:54;14.20;99.90
15103;DHT22;7652;53.584;9.998;2022-07-24T03:46:58;14.10;99.90
15103;DHT22;7652;53.584;9.998;2022-07-24T03:50:01;14.10;99.90
15103;DHT22;7652;53.584;9.998;2022-07-24T03:53:04;14.10;99.90
15103;DHT22;7652;53.584;9.998;2022-07-24T03:56:10;14.20;99.90
15103;DHT22;7652;53.584;9.998;2022-07-24T03:59:13;14.10;99.90
15103;DHT22;7652;53.584;9.998;2022-07-24T04:02:16;14.20;99.90
15103;DHT22;7652;53.584;9.998;2022-07-24T04:05:19;14.20;99.90
15103;DHT22;7652;53.584;9.998;2022-07-24T04:08:22;14.20;99.90
15103;DHT22;7652;53.584;9.998;2022-07-24T04:11:27;14.20;99.90
15103;DHT22;7652;53.584;9.998;2022-07-24T04:14:30;14.30;99.90
15103;DHT22;7652;53.584;9.998;2022-07-24T04:17:37;14.30;99.90
15103;DHT22;7652;53.584;9.998;2022-07-24T04:20:40;14.40;99.90
15103;DHT22;7652;53.584;9.998;2022-07-24T04:23:43;14.50;99.90
15103;DHT22;7652;53.584;9.998;2022-07-24T04:26:48;14.50;99.90
15103;DHT22;7652;53.584;9.998;2022-07-24T04:29:51;14.60;99.90
15103;DHT22;7652;53.584;9.998;2022-07-24T04:32:54;14.50;99.90
15103;DHT22;7652;53.584;9.998;2022-07-24T04:35:57;14.50;99.90
15103;DHT22;7652;53.584;9.998;2022-07-24T04:39:00;14.50;99.90
15103;DHT22;7652;53.584;9.998;2022-07-24T04:42:10;14.50;99.90
15103;DHT22;7652;53.584;9.998;2022-07-24T04:45:13;14.60;99.90
15103;DHT22;7652;53.584;9.998;2022-07-24T04:48:16;14.60;99.90
15103;DHT22;7652;53.584;9.998;2022-07-24T04:51:19;14.70;99.90
15103;DHT22;7652;53.584;9.998;2022-07-24T04:54:22;14.80;99.90
15103;DHT22;7652;53.584;9.998;2022-07-24T04:57:26;14.90;99.90
15103;DHT22;7652;53.584;9.998;2022-07-24T05:00:29;14.90;99.90
15103;DHT22;7652;53.584;9.998;2022-07-24T05:03:33;14.90;99.90
15103;DHT22;7652;53.584;9.998;2022-07-24T05:06:36;15.00;99.90
15103;DHT22;7652;53.584;9.998;2022-07-24T05:09:39;15.10;99.90
15103;DHT22;7652;53.584;9.998;2022-07-24T05:12:43;15.10;99.90
15103;DHT22;7652;53.584;9.998;2022-07-24T05:15:46;15.30;99.90
15103;DHT22;7652;53.584;9.998;2022-07-24T05:18:49;15.30;99.90
15103;DHT22;7652;53.584;9.998;2022-07-24T05:21:52;15.40;99.90
15103;DHT22;7652;53.584;9.998;2022-07-24T05:24:55;15.50;99.90
15103;DHT22;7652;53.584;9.998;2022-07-24T05:28:00;15.60;99.90
15103;DHT22;7652;53.584;9.998;2022-07-24T05:31:03;15.60;99.90
15103;DHT22;7652;53.584;9.998;2022-07-24T05:34:06;15.70;99.90
15103;DHT22;7652;53.584;9.998;2022-07-24T05:37:09;15.80;99.90
15103;DHT22;7652;53.584;9.998;2022-07-24T05:40:12;15.90;99.90
15103;DHT22;7652;53.584;9.998;2022-07-24T05:43:17;16.00;99.90
15103;DHT22;7652;53.584;9.998;2022-07-24T05:46:20;16.20;99.90
15103;DHT22;7652;53.584;9.998;2022-07-24T05:49:23;16.30;99.90
15103;DHT22;7652;53.584;9.998;2022-07-24T05:52:27;16.70;99.90
15103;DHT22;7652;53.584;9.998;2022-07-24T05:55:30;17.10;99.90
15103;DHT22;7652;53.584;9.998;2022-07-24T05:58:35;17.50;99.90
15103;DHT22;7652;53.584;9.998;2022-07-24T06:01:38;17.90;99.90
15103;DHT22;7652;53.584;9.998;2022-07-24T06:04:41;18.30;99.90
15103;DHT22;7652;53.584;9.998;2022-07-24T06:07:45;18.70;99.90
15103;DHT22;7652;53.584;9.998;2022-07-24T06:10:48;19.20;99.90
15103;DHT22;7652;53.584;9.998;2022-07-24T06:13:52;19.50;99.90
15103;DHT22;7652;53.584;9.998;2022-07-24T06:16:58;19.80;99.90
15103;DHT22;7652;53.584;9.998;2022-07-24T06:20:01;20.10;99.90
15103;DHT22;7652;53.584;9.998;2022-07-24T06:23:04;20.30;99.90
15103;DHT22;7652;53.584;9.998;2022-07-24T06:26:07;20.10;99.90
15103;DHT22;7652;53.584;9.998;2022-07-24T06:29:11;20.30;99.90
15103;DHT22;7652;53.584;9.998;2022-07-24T06:32:20;20.50;99.90
15103;DHT22;7652;53.584;9.998;2022-07-24T06:35:23;20.50;99.90
15103;DHT22;7652;53.584;9.998;2022-07-24T06:38:27;20.30;99.90
15103;DHT22;7652;53.584;9.998;2022-07-24T06:41:30;20.30;99.90
15103;DHT22;7652;53.584;9.998;2022-07-24T06:44:34;20.20;99.90
15103;DHT22;7652;53.584;9.998;2022-07-24T06:47:38;20.40;99.90
15103;DHT22;7652;53.584;9.998;2022-07-24T06:50:41;20.70;99.90
15103;DHT22;7652;53.584;9.998;2022-07-24T06:53:44;20.80;99.90
15103;DHT22;7652;53.584;9.998;2022-07-24T06:56:48;20.60;99.90
15103;DHT22;7652;53.584;9.998;2022-07-24T06:59:54;20.20;99.90
15103;DHT22;7652;53.584;9.998;2022-07-24T07:02:57;20.10;99.90
15103;DHT22;7652;53.584;9.998;2022-07-24T07:06:00;20.00;99.90
15103;DHT22;7652;53.584;9.998;2022-07-24T07:09:03;20.20;99.90
15103;DHT22;7652;53.584;9.998;2022-07-24T07:12:08;20.30;99.90
15103;DHT22;7652;53.584;9.998;2022-07-24T07:15:12;20.30;99.90
15103;DHT22;7652;53.584;9.998;2022-07-24T07:18:15;20.20;99.90
15103;DHT22;7652;53.584;9.998;2022-07-24T07:21:18;20.20;99.90
15103;DHT22;7652;53.584;9.998;2022-07-24T07:24:21;20.10;99.90
15103;DHT22;7652;53.584;9.998;2022-07-24T07:27:24;20.10;99.90
15103;DHT22;7652;53.584;9.998;2022-07-24T07:30:29;20.10;99.90
15103;DHT22;7652;53.584;9.998;2022-07-24T07:33:32;20.30;99.90
15103;DHT22;7652;53.584;9.998;2022-07-24T07:36:35;20.50;99.90
15103;DHT22;7652;53.584;9.998;2022-07-24T07:39:38;20.50;99.90
15103;DHT22;7652;53.584;9.998;2022-07-24T07:42:41;20.50;99.90
15103;DHT22;7652;53.584;9.998;2022-07-24T07:45:46;20.60;99.90
15103;DHT22;7652;53.584;9.998;2022-07-24T07:48:49;20.60;99.90
15103;DHT22;7652;53.584;9.998;2022-07-24T07:51:52;20.70;99.90
15103;DHT22;7652;53.584;9.998;2022-07-24T07:54:55;20.80;99.90
15103;DHT22;7652;53.584;9.998;2022-07-24T07:58:00;20.80;99.90
15103;DHT22;7652;53.584;9.998;2022-07-24T08:01:08;20.80;99.90
15103;DHT22;7652;53.584;9.998;2022-07-24T08:04:11;21.00;99.90
15103;DHT22;7652;53.584;9.998;2022-07-24T08:07:15;21.10;99.90
15103;DHT22;7652;53.584;9.998;2022-07-24T08:10:18;21.30;99.90
15103;DHT22;7652;53.584;9.998;2022-07-24T08:13:22;21.40;99.90
15103;DHT22;7652;53.584;9.998;2022-07-24T08:16:27;21.50;99.90
15103;DHT22;7652;53.584;9.998;2022-07-24T08:19:30;21.60;99.90
15103;DHT22;7652;53.584;9.998;2022-07-24T08:22:33;21.70;99.90
15103;DHT22;7652;53.584;9.998;2022-07-24T08:25:36;21.80;99.90
15103;DHT22;7652;53.584;9.998;2022-07-24T08:28:40;21.80;99.90
15103;DHT22;7652;53.584;9.998;2022-07-24T08:31:45;21.90;99.90
15103;DHT22;7652;53.584;9.998;2022-07-24T08:34:48;22.00;99.90
15103;DHT22;7652;53.584;9.998;2022-07-24T08:37:51;22.10;99.90
15103;DHT22;7652;53.584;9.998;2022-07-24T08:40:56;22.20;99.90
15103;DHT22;7652;53.584;9.998;2022-07-24T08:44:01;22.30;99.90
15103;DHT22;7652;53.584;9.998;2022-07-24T08:47:06;22.40;99.90
15103;DHT22;7652;53.584;9.998;2022-07-24T08:50:10;22.50;99.90
15103;DHT22;7652;53.584;9.998;2022-07-24T08:53:14;22.50;99.90
15103;DHT22;7652;53.584;9.998;2022-07-24T08:56:17;22.60;99.90
15103;DHT22;7652;53.584;9.998;2022-07-24T08:59:22;22.70;99.90
15103;DHT22;7652;53.584;9.998;2022-07-24T09:02:28;22.70;99.90
15103;DHT22;7652;53.584;9.998;2022-07-24T09:05:32;22.80;99.90
15103;DHT22;7652;53.584;9.998;2022-07-24T09:08:38;22.90;99.90
15103;DHT22;7652;53.584;9.998;2022-07-24T09:11:41;23.10;99.90
15103;DHT22;7652;53.584;9.998;2022-07-24T09:14:46;23.20;99.90
15103;DHT22;7652;53.584;9.998;2022-07-24T09:17:52;23.30;99.90
15103;DHT22;7652;53.584;9.998;2022-07-24T09:20:57;23.40;99.90
15103;DHT22;7652;53.584;9.998;2022-07-24T09:24:00;23.50;99.90
15103;DHT22;7652;53.584;9.998;2022-07-24T09:27:14;23.60;99.90
15103;DHT22;7652;53.584;9.998;2022-07-24T09:30:27;23.70;99.90
15103;DHT22;7652;53.584;9.998;2022-07-24T09:33:35;23.80;99.90
15103;DHT22;7652;53.584;9.998;2022-07-24T09:36:39;23.80;99.90
15103;DHT22;7652;53.584;9.998;2022-07-24T09:39:42;23.90;99.90
15103;DHT22;7652;53.584;9.998;2022-07-24T09:42:46;24.00;99.90
15103;DHT22;7652;53.584;9.998;2022-07-24T09:45:58;24.00;99.90
15103;DHT22;7652;53.584;9.998;2022-07-24T09:49:04;24.10;99.90
15103;DHT22;7652;53.584;9.998;2022-07-24T09:52:11;24.20;99.90
15103;DHT22;7652;53.584;9.998;2022-07-24T09:55:25;24.30;99.90
15103;DHT22;7652;53.584;9.998;2022-07-24T09:58:29;24.40;99.90
15103;DHT22;7652;53.584;9.998;2022-07-24T10:01:33;24.50;99.90
15103;DHT22;7652;53.584;9.998;2022-07-24T10:04:41;24.50;99.90
15103;DHT22;7652;53.584;9.998;2022-07-24T10:07:47;24.60;99.90
15103;DHT22;7652;53.584;9.998;2022-07-24T10:10:51;24.90;99.90
15103;DHT22;7652;53.584;9.998;2022-07-24T10:13:58;25.00;99.90
15103;DHT22;7652;53.584;9.998;2022-07-24T10:17:05;25.20;99.90
15103;DHT22;7652;53.584;9.998;2022-07-24T10:20:37;25.20;99.90
15103;DHT22;7652;53.584;9.998;2022-07-24T10:24:06;25.40;99.90
15103;DHT22;7652;53.584;9.998;2022-07-24T10:27:26;25.50;99.90
15103;DHT22;7652;53.584;9.998;2022-07-24T10:30:30;25.70;99.90
15103;DHT22;7652;53.584;9.998;2022-07-24T10:33:35;25.90;99.90
15103;DHT22;7652;53.584;9.998;2022-07-24T10:36:48;26.10;99.90
15103;DHT22;7652;53.584;9.998;2022-07-24T10:40:02;26.30;99.90
15103;DHT22;7652;53.584;9.998;2022-07-24T10:43:14;26.30;99.90
15103;DHT22;7652;53.584;9.998;2022-07-24T10:46:17;26.30;99.90
15103;DHT22;7652;53.584;9.998;2022-07-24T10:49:33;26.10;99.90
15103;DHT22;7652;53.584;9.998;2022-07-24T10:52:38;26.10;99.90
15103;DHT22;7652;53.584;9.998;2022-07-24T10:55:42;26.10;99.90
15103;DHT22;7652;53.584;9.998;2022-07-24T10:58:59;26.20;99.90
15103;DHT22;7652;53.584;9.998;2022-07-24T11:02:27;26.20;99.90
15103;DHT22;7652;53.584;9.998;2022-07-24T11:05:32;26.30;99.90
15103;DHT22;7652;53.584;9.998;2022-07-24T11:08:40;26.40;99.90
15103;DHT22;7652;53.584;9.998;2022-07-24T11:12:07;26.50;99.90
15103;DHT22;7652;53.584;9.998;2022-07-24T11:15:17;26.60;99.90
15103;DHT22;7652;53.584;9.998;2022-07-24T11:18:42;26.70;99.90
15103;DHT22;7652;53.584;9.998;2022-07-24T11:22:10;26.80;99.90
15103;DHT22;7652;53.584;9.998;2022-07-24T11:25:17;27.00;99.90
15103;DHT22;7652;53.584;9.998;2022-07-24T11:28:20;27.00;99.90
15103;DHT22;7652;53.584;9.998;2022-07-24T11:31:23;27.00;99.90
15103;DHT22;7652;53.584;9.998;2022-07-24T11:34:28;27.10;99.90
15103;DHT22;7652;53.584;9.998;2022-07-24T11:37:32;27.30;99.90
15103;DHT22;7652;53.584;9.998;2022-07-24T11:40:38;27.40;99.90
15103;DHT22;7652;53.584;9.998;2022-07-24T11:43:49;27.40;99.90
15103;DHT22;7652;53.584;9.998;2022-07-24T11:46:53;27.50;99.90
15103;DHT22;7652;53.584;9.998;2022-07-24T11:49:57;27.70;99.90
15103;DHT22;7652;53.584;9.998;2022-07-24T11:53:06;27.80;99.80
15103;DHT22;7652;53.584;9.998;2022-07-24T11:56:10;27.90;99.70
15103;DHT22;7652;53.584;9.998;2022-07-24T11:59:21;27.80;99.70
15103;DHT22;7652;53.584;9.998;2022-07-24T12:02:25;27.90;99.30
15103;DHT22;7652;53.584;9.998;2022-07-24T12:05:32;27.90;99.50
15103;DHT22;7652;53.584;9.998;2022-07-24T12:08:35;28.00;99.80
15103;DHT22;7652;53.584;9.998;2022-07-24T12:11:39;28.10;99.60
15103;DHT22;7652;53.584;9.998;2022-07-24T12:14:42;28.30;99.20
15103;DHT22;7652;53.584;9.998;2022-07-24T12:17:58;28.50;98.80
15103;DHT22;7652;53.584;9.998;2022-07-24T12:21:02;28.70;98.50
15103;DHT22;7652;53.584;9.998;2022-07-24T12:24:06;28.90;98.00
15103;DHT22;7652;53.584;9.998;2022-07-24T12:27:11;29.20;97.40
15103;DHT22;7652;53.584;9.998;2022-07-24T12:30:19;29.50;96.60
15103;DHT22;7652;53.584;9.998;2022-07-24T12:33:24;29.60;96.40
15103;DHT22;7652;53.584;9.998;2022-07-24T12:36:28;29.50;96.70
15103;DHT22;7652;53.584;9.998;2022-07-24T12:39:32;29.80;96.10
15103;DHT22;7652;53.584;9.998;2022-07-24T12:42:36;30.10;95.30
15103;DHT22;7652;53.584;9.998;2022-07-24T12:45:39;30.30;95.50
15103;DHT22;7652;53.584;9.998;2022-07-24T12:48:56;30.90;93.60
15103;DHT22;7652;53.584;9.998;2022-07-24T12:52:00;31.60;92.40
15103;DHT22;7652;53.584;9.998;2022-07-24T12:55:18;31.80;91.10
15103;DHT22;7652;53.584;9.998;2022-07-24T12:58:23;31.30;91.40
15103;DHT22;7652;53.584;9.998;2022-07-24T13:01:28;31.10;91.60
15103;DHT22;7652;53.584;9.998;2022-07-24T13:04:31;30.80;91.90
15103;DHT22;7652;53.584;9.998;2022-07-24T13:07:35;30.70;92.30
15103;DHT22;7652;53.584;9.998;2022-07-24T13:10:39;30.50;92.00
15103;DHT22;7652;53.584;9.998;2022-07-24T13:13:44;30.20;92.50
15103;DHT22;7652;53.584;9.998;2022-07-24T13:16:49;30.00;91.70
15103;DHT22;7652;53.584;9.998;2022-07-24T13:19:52;29.70;92.00
15103;DHT22;7652;53.584;9.998;2022-07-24T13:22:56;29.50;92.20
15103;DHT22;7652;53.584;9.998;2022-07-24T13:25:59;29.40;92.80
15103;DHT22;7652;53.584;9.998;2022-07-24T13:29:03;29.50;93.20
15103;DHT22;7652;53.584;9.998;2022-07-24T13:32:07;29.90;92.60
15103;DHT22;7652;53.584;9.998;2022-07-24T13:35:10;30.30;92.70
15103;DHT22;7652;53.584;9.998;2022-07-24T13:38:13;30.40;92.30
15103;DHT22;7652;53.584;9.998;2022-07-24T13:41:16;30.40;92.20
15103;DHT22;7652;53.584;9.998;2022-07-24T13:44:21;30.40;91.80
15103;DHT22;7652;53.584;9.998;2022-07-24T13:47:24;30.40;91.60
15103;DHT22;7652;53.584;9.998;2022-07-24T13:50:27;30.40;91.90
15103;DHT22;7652;53.584;9.998;2022-07-24T13:53:30;30.40;91.70
15103;DHT22;7652;53.584;9.998;2022-07-24T13:56:33;30.30;91.60
15103;DHT22;7652;53.584;9.998;2022-07-24T13:59:38;30.10;91.80
15103;DHT22;7652;53.584;9.998;2022-07-24T14:02:41;30.00;91.70
15103;DHT22;7652;53.584;9.998;2022-07-24T14:05:44;29.80;91.80
15103;DHT22;7652;53.584;9.998;2022-07-24T14:08:47;29.70;91.80
15103;DHT22;7652;53.584;9.998;2022-07-24T14:11:50;29.70;92.60
15103;DHT22;7652;53.584;9.998;2022-07-24T14:14:55;29.80;92.30
15103;DHT22;7652;53.584;9.998;2022-07-24T14:17:59;29.90;92.10
15103;DHT22;7652;53.584;9.998;2022-07-24T14:21:02;30.00;91.20
15103;DHT22;7652;53.584;9.998;2022-07-24T14:24:06;30.00;91.40
15103;DHT22;7652;53.584;9.998;2022-07-24T14:27:16;30.10;91.00
15103;DHT22;7652;53.584;9.998;2022-07-24T14:30:20;30.10;91.20
15103;DHT22;7652;53.584;9.998;2022-07-24T14:33:24;30.10;91.00
15103;DHT22;7652;53.584;9.998;2022-07-24T14:36:27;30.10;90.80
15103;DHT22;7652;53.584;9.998;2022-07-24T14:39:30;30.00;91.40
15103;DHT22;7652;53.584;9.998;2022-07-24T14:42:33;30.10;91.00
15103;DHT22;7652;53.584;9.998;2022-07-24T14:45:38;30.00;90.90
15103;DHT22;7652;53.584;9.998;2022-07-24T14:48:41;30.00;91.40
15103;DHT22;7652;53.584;9.998;2022-07-24T14:51:44;29.90;91.10
15103;DHT22;7652;53.584;9.998;2022-07-24T14:54:49;29.90;91.10
15103;DHT22;7652;53.584;9.998;2022-07-24T14:58:04;29.90;91.00
15103;DHT22;7652;53.584;9.998;2022-07-24T15:01:09;29.80;91.80
15103;DHT22;7652;53.584;9.998;2022-07-24T15:04:12;29.90;91.50
15103;DHT22;7652;53.584;9.998;2022-07-24T15:07:15;29.90;90.80
15103;DHT22;7652;53.584;9.998;2022-07-24T15:10:19;29.90;91.20
15103;DHT22;7652;53.584;9.998;2022-07-24T15:13:22;30.00;90.70
15103;DHT22;7652;53.584;9.998;2022-07-24T15:16:31;30.00;90.70
15103;DHT22;7652;53.584;9.998;2022-07-24T15:19:34;30.00;90.30
15103;DHT22;7652;53.584;9.998;2022-07-24T15:22:37;29.90;90.60
15103;DHT22;7652;53.584;9.998;2022-07-24T15:25:40;29.80;90.70
15103;DHT22;7652;53.584;9.998;2022-07-24T15:28:43;29.80;90.90
15103;DHT22;7652;53.584;9.998;2022-07-24T15:31:48;29.80;90.90
15103;DHT22;7652;53.584;9.998;2022-07-24T15:34:51;29.70;91.10
15103;DHT22;7652;53.584;9.998;2022-07-24T15:37:54;29.60;91.50
15103;DHT22;7652;53.584;9.998;2022-07-24T15:40:57;29.60;91.10
15103;DHT22;7652;53.584;9.998;2022-07-24T15:44:00;29.60;91.30
15103;DHT22;7652;53.584;9.998;2022-07-24T15:47:05;29.60;91.70
15103;DHT22;7652;53.584;9.998;2022-07-24T15:50:09;29.70;90.80
15103;DHT22;7652;53.584;9.998;2022-07-24T15:53:12;29.70;90.60
15103;DHT22;7652;53.584;9.998;2022-07-24T15:56:15;29.60;91.00
15103;DHT22;7652;53.584;9.998;2022-07-24T15:59:18;29.50;91.00
15103;DHT22;7652;53.584;9.998;2022-07-24T16:02:22;29.40;91.60
15103;DHT22;7652;53.584;9.998;2022-07-24T16:05:25;29.40;91.20
15103;DHT22;7652;53.584;9.998;2022-07-24T16:08:29;29.40;91.40
15103;DHT22;7652;53.584;9.998;2022-07-24T16:11:32;29.50;91.20
15103;DHT22;7652;53.584;9.998;2022-07-24T16:14:35;29.50;91.20
15103;DHT22;7652;53.584;9.998;2022-07-24T16:17:40;29.40;91.60
15103;DHT22;7652;53.584;9.998;2022-07-24T16:20:43;29.20;92.10
15103;DHT22;7652;53.584;9.998;2022-07-24T16:23:47;29.10;91.60
15103;DHT22;7652;53.584;9.998;2022-07-24T16:26:56;29.10;91.90
15103;DHT22;7652;53.584;9.998;2022-07-24T16:29:59;29.00;92.20
15103;DHT22;7652;53.584;9.998;2022-07-24T16:33:03;29.10;91.90
15103;DHT22;7652;53.584;9.998;2022-07-24T16:36:26;29.10;91.90
15103;DHT22;7652;53.584;9.998;2022-07-24T16:39:29;29.10;92.20
15103;DHT22;7652;53.584;9.998;2022-07-24T16:42:42;29.10;91.90
15103;DHT22;7652;53.584;9.998;2022-07-24T16:45:46;29.10;92.00
15103;DHT22;7652;53.584;9.998;2022-07-24T16:48:51;29.10;92.10
15103;DHT22;7652;53.584;9.998;2022-07-24T16:51:54;29.10;92.20
15103;DHT22;7652;53.584;9.998;2022-07-24T16:54:57;29.10;92.70
15103;DHT22;7652;53.584;9.998;2022-07-24T16:58:00;29.00;92.20
15103;DHT22;7652;53.584;9.998;2022-07-24T17:01:05;29.00;92.50
15103;DHT22;7652;53.584;9.998;2022-07-24T17:04:09;29.00;92.80
15103;DHT22;7652;53.584;9.998;2022-07-24T17:07:13;28.90;92.90
15103;DHT22;7652;53.584;9.998;2022-07-24T17:10:16;28.90;93.30
15103;DHT22;7652;53.584;9.998;2022-07-24T17:13:19;28.80;93.20
15103;DHT22;7652;53.584;9.998;2022-07-24T17:16:22;28.80;93.10
15103;DHT22;7652;53.584;9.998;2022-07-24T17:19:28;28.80;93.50
15103;DHT22;7652;53.584;9.998;2022-07-24T17:22:32;28.80;94.10
15103;DHT22;7652;53.584;9.998;2022-07-24T17:25:36;28.70;94.00
15103;DHT22;7652;53.584;9.998;2022-07-24T17:28:39;28.70;93.70
15103;DHT22;7652;53.584;9.998;2022-07-24T17:31:43;28.70;93.90
15103;DHT22;7652;53.584;9.998;2022-07-24T17:34:47;28.60;93.90
15103;DHT22;7652;53.584;9.998;2022-07-24T17:37:51;28.50;94.20
15103;DHT22;7652;53.584;9.998;2022-07-24T17:40:54;28.50;94.50
15103;DHT22;7652;53.584;9.998;2022-07-24T17:43:57;28.50;94.20
15103;DHT22;7652;53.584;9.998;2022-07-24T17:47:00;28.50;94.50
15103;DHT22;7652;53.584;9.998;2022-07-24T17:50:05;28.40;94.70
15103;DHT22;7652;53.584;9.998;2022-07-24T17:53:09;28.40;94.80
15103;DHT22;7652;53.584;9.998;2022-07-24T17:56:12;28.30;95.10
15103;DHT22;7652;53.584;9.998;2022-07-24T17:59:15;28.30;95.10
15103;DHT22;7652;53.584;9.998;2022-07-24T18:02:18;28.20;95.60
15103;DHT22;7652;53.584;9.998;2022-07-24T18:05:22;28.20;95.30
15103;DHT22;7652;53.584;9.998;2022-07-24T18:08:25;28.20;95.30
15103;DHT22;7652;53.584;9.998;2022-07-24T18:11:28;28.20;95.40
15103;DHT22;7652;53.584;9.998;2022-07-24T18:14:32;28.10;95.60
15103;DHT22;7652;53.584;9.998;2022-07-24T18:17:36;28.00;95.80
15103;DHT22;7652;53.584;9.998;2022-07-24T18:20:40;28.00;96.20
15103;DHT22;7652;53.584;9.998;2022-07-24T18:23:43;27.90;96.50
15103;DHT22;7652;53.584;9.998;2022-07-24T18:26:46;27.90;96.70
15103;DHT22;7652;53.584;9.998;2022-07-24T18:29:49;27.80;96.50
15103;DHT22;7652;53.584;9.998;2022-07-24T18:32:53;27.80;97.00
15103;DHT22;7652;53.584;9.998;2022-07-24T18:35:58;27.70;97.00
15103;DHT22;7652;53.584;9.998;2022-07-24T18:39:01;27.60;97.20
15103;DHT22;7652;53.584;9.998;2022-07-24T18:42:04;27.60;97.50
15103;DHT22;7652;53.584;9.998;2022-07-24T18:45:09;27.50;98.30
15103;DHT22;7652;53.584;9.998;2022-07-24T18:48:12;27.50;98.80
15103;DHT22;7652;53.584;9.998;2022-07-24T18:51:17;27.40;98.20
15103;DHT22;7652;53.584;9.998;2022-07-24T18:54:26;27.30;99.10
15103;DHT22;7652;53.584;9.998;2022-07-24T18:57:28;27.20;99.60
15103;DHT22;7652;53.584;9.998;2022-07-24T19:00:31;27.10;99.90
15103;DHT22;7652;53.584;9.998;2022-07-24T19:03:34;27.00;99.90
15103;DHT22;7652;53.584;9.998;2022-07-24T19:06:40;26.90;99.90
15103;DHT22;7652;53.584;9.998;2022-07-24T19:09:51;26.80;99.90
15103;DHT22;7652;53.584;9.998;2022-07-24T19:12:54;26.70;99.90
15103;DHT22;7652;53.584;9.998;2022-07-24T19:15:57;26.60;99.90
15103;DHT22;7652;53.584;9.998;2022-07-24T19:19:00;26.50;99.90
15103;DHT22;7652;53.584;9.998;2022-07-24T19:22:05;26.40;99.90
15103;DHT22;7652;53.584;9.998;2022-07-24T19:25:08;26.30;99.90
15103;DHT22;7652;53.584;9.998;2022-07-24T19:28:11;26.30;99.90
15103;DHT22;7652;53.584;9.998;2022-07-24T19:31:15;26.10;99.90
15103;DHT22;7652;53.584;9.998;2022-07-24T19:34:18;26.10;99.90
15103;DHT22;7652;53.584;9.998;2022-07-24T19:37:23;25.90;99.90
15103;DHT22;7652;53.584;9.998;2022-07-24T19:40:26;25.90;99.90
15103;DHT22;7652;53.584;9.998;2022-07-24T19:43:29;25.70;99.90